Barberville, Florida
Current Conditions -  °F | °C
As of 4:53 PM on Saturday 20 Dec 2014 (Local Time) from KDAB Reporting Station
Broken Clouds Broken Clouds  
Wind Chill: 68°   Ceiling: 25000
Heat Index: 68°   Visibility: 10mi
Dew Point: 61°   Wind: 7mph
Humidity: 78%   Direction: 20°NNE
Pressure: 30.08"   Gusts: NA
Location:  29.19°N, 81.42°W
Report Text: KDAB 202153Z 02006KT 10SM FEW035 SCT080 SCT120 BKN250 20/16 A3008 RMK AO2 SLP183 T02000161
Loading
Personal Weather Stations






























Interactive Weather Map New forecast layout! Learn more

10-Day Weather Forecast

Advertisements
Track Severe Weather on mobile